sensor_id;sensor_type;location;lat;lon;timestamp;temperature;humidity
42099;DHT22;27758;55.900;8.516;2023-04-06T00:01:36;1.00;99.90
42099;DHT22;27758;55.900;8.516;2023-04-06T00:04:02;1.00;99.90
42099;DHT22;27758;55.900;8.516;2023-04-06T00:06:28;1.10;99.90
42099;DHT22;27758;55.900;8.516;2023-04-06T00:08:54;1.20;99.90
42099;DHT22;27758;55.900;8.516;2023-04-06T00:11:20;1.20;99.90
42099;DHT22;27758;55.900;8.516;2023-04-06T00:13:45;1.20;99.90
42099;DHT22;27758;55.900;8.516;2023-04-06T00:16:11;1.30;99.90
42099;DHT22;27758;55.900;8.516;2023-04-06T00:18:37;1.30;99.90
42099;DHT22;27758;55.900;8.516;2023-04-06T00:21:03;1.50;99.90
42099;DHT22;27758;55.900;8.516;2023-04-06T00:23:29;1.50;99.90
42099;DHT22;27758;55.900;8.516;2023-04-06T00:25:54;1.40;99.90
42099;DHT22;27758;55.900;8.516;2023-04-06T00:28:21;1.30;99.90
42099;DHT22;27758;55.900;8.516;2023-04-06T00:30:51;1.30;99.90
42099;DHT22;27758;55.900;8.516;2023-04-06T00:33:18;1.30;99.90
42099;DHT22;27758;55.900;8.516;2023-04-06T00:35:45;1.30;99.90
42099;DHT22;27758;55.900;8.516;2023-04-06T00:38:11;1.30;99.90
42099;DHT22;27758;55.900;8.516;2023-04-06T00:40:37;1.30;99.90
42099;DHT22;27758;55.900;8.516;2023-04-06T00:43:05;1.30;99.90
42099;DHT22;27758;55.900;8.516;2023-04-06T00:45:31;1.40;99.90
42099;DHT22;27758;55.900;8.516;2023-04-06T00:47:57;1.60;99.90
42099;DHT22;27758;55.900;8.516;2023-04-06T00:50:23;1.50;99.90
42099;DHT22;27758;55.900;8.516;2023-04-06T00:52:49;1.60;99.90
42099;DHT22;27758;55.900;8.516;2023-04-06T00:55:15;1.60;99.90
42099;DHT22;27758;55.900;8.516;2023-04-06T00:57:40;1.70;99.90
42099;DHT22;27758;55.900;8.516;2023-04-06T01:00:07;1.70;99.90
42099;DHT22;27758;55.900;8.516;2023-04-06T01:02:32;1.60;99.90
42099;DHT22;27758;55.900;8.516;2023-04-06T01:04:58;1.60;99.90
42099;DHT22;27758;55.900;8.516;2023-04-06T01:07:24;1.70;99.90
42099;DHT22;27758;55.900;8.516;2023-04-06T01:09:50;1.70;99.90
42099;DHT22;27758;55.900;8.516;2023-04-06T01:12:18;1.70;99.90
42099;DHT22;27758;55.900;8.516;2023-04-06T01:14:43;1.60;99.90
42099;DHT22;27758;55.900;8.516;2023-04-06T01:17:09;1.80;99.90
42099;DHT22;27758;55.900;8.516;2023-04-06T01:19:36;1.90;99.90
42099;DHT22;27758;55.900;8.516;2023-04-06T01:22:02;1.90;99.90
42099;DHT22;27758;55.900;8.516;2023-04-06T01:24:27;1.80;99.90
42099;DHT22;27758;55.900;8.516;2023-04-06T01:26:53;1.70;99.90
42099;DHT22;27758;55.900;8.516;2023-04-06T01:29:19;1.60;99.90
42099;DHT22;27758;55.900;8.516;2023-04-06T01:31:45;1.60;99.90
42099;DHT22;27758;55.900;8.516;2023-04-06T01:34:11;1.50;99.90
42099;DHT22;27758;55.900;8.516;2023-04-06T01:36:36;1.60;99.90
42099;DHT22;27758;55.900;8.516;2023-04-06T01:39:02;1.60;99.90
42099;DHT22;27758;55.900;8.516;2023-04-06T01:41:28;1.50;99.90
42099;DHT22;27758;55.900;8.516;2023-04-06T01:43:54;1.40;99.90
42099;DHT22;27758;55.900;8.516;2023-04-06T01:46:20;1.30;99.90
42099;DHT22;27758;55.900;8.516;2023-04-06T01:48:46;1.40;99.90
42099;DHT22;27758;55.900;8.516;2023-04-06T01:51:11;1.40;99.90
42099;DHT22;27758;55.900;8.516;2023-04-06T01:53:37;1.40;99.90
42099;DHT22;27758;55.900;8.516;2023-04-06T01:56:03;1.30;99.90
42099;DHT22;27758;55.900;8.516;2023-04-06T01:58:29;1.20;99.90
42099;DHT22;27758;55.900;8.516;2023-04-06T02:00:54;1.30;99.90
42099;DHT22;27758;55.900;8.516;2023-04-06T02:03:20;1.20;99.90
42099;DHT22;27758;55.900;8.516;2023-04-06T02:05:46;1.10;99.90
42099;DHT22;27758;55.900;8.516;2023-04-06T02:08:12;1.10;99.90
42099;DHT22;27758;55.900;8.516;2023-04-06T02:10:37;1.00;99.90
42099;DHT22;27758;55.900;8.516;2023-04-06T02:13:03;1.00;99.90
42099;DHT22;27758;55.900;8.516;2023-04-06T02:15:29;1.00;99.90
42099;DHT22;27758;55.900;8.516;2023-04-06T02:17:55;0.90;99.90
42099;DHT22;27758;55.900;8.516;2023-04-06T02:20:20;0.90;99.90
42099;DHT22;27758;55.900;8.516;2023-04-06T02:22:46;0.80;99.90
42099;DHT22;27758;55.900;8.516;2023-04-06T02:25:12;0.80;99.90
42099;DHT22;27758;55.900;8.516;2023-04-06T02:27:38;0.70;99.90
42099;DHT22;27758;55.900;8.516;2023-04-06T02:30:04;0.70;99.90
42099;DHT22;27758;55.900;8.516;2023-04-06T02:32:30;0.70;99.90
42099;DHT22;27758;55.900;8.516;2023-04-06T02:34:56;0.60;99.90
42099;DHT22;27758;55.900;8.516;2023-04-06T02:37:21;0.50;99.90
42099;DHT22;27758;55.900;8.516;2023-04-06T02:39:49;0.70;99.90
42099;DHT22;27758;55.900;8.516;2023-04-06T02:42:15;0.70;99.90
42099;DHT22;27758;55.900;8.516;2023-04-06T02:44:42;0.60;99.90
42099;DHT22;27758;55.900;8.516;2023-04-06T02:47:08;0.50;99.90
42099;DHT22;27758;55.900;8.516;2023-04-06T02:49:34;0.40;99.90
42099;DHT22;27758;55.900;8.516;2023-04-06T02:52:00;0.40;99.90
42099;DHT22;27758;55.900;8.516;2023-04-06T02:54:26;0.50;99.90
42099;DHT22;27758;55.900;8.516;2023-04-06T02:56:51;0.40;99.90
42099;DHT22;27758;55.900;8.516;2023-04-06T02:59:17;0.40;99.90
42099;DHT22;27758;55.900;8.516;2023-04-06T03:01:43;0.30;99.90
42099;DHT22;27758;55.900;8.516;2023-04-06T03:04:08;0.30;99.90
42099;DHT22;27758;55.900;8.516;2023-04-06T03:06:34;0.30;99.90
42099;DHT22;27758;55.900;8.516;2023-04-06T03:09:00;0.30;99.90
42099;DHT22;27758;55.900;8.516;2023-04-06T03:11:25;0.30;99.90
42099;DHT22;27758;55.900;8.516;2023-04-06T03:13:52;0.30;99.90
42099;DHT22;27758;55.900;8.516;2023-04-06T03:16:18;0.30;99.90
42099;DHT22;27758;55.900;8.516;2023-04-06T03:18:43;0.30;99.90
42099;DHT22;27758;55.900;8.516;2023-04-06T03:21:10;0.30;99.90
42099;DHT22;27758;55.900;8.516;2023-04-06T03:23:36;0.30;99.90
42099;DHT22;27758;55.900;8.516;2023-04-06T03:26:02;0.30;99.90
42099;DHT22;27758;55.900;8.516;2023-04-06T03:28:29;0.30;99.90
42099;DHT22;27758;55.900;8.516;2023-04-06T03:30:54;0.30;99.90
42099;DHT22;27758;55.900;8.516;2023-04-06T03:33:20;0.20;99.90
42099;DHT22;27758;55.900;8.516;2023-04-06T03:35:46;0.20;99.90
42099;DHT22;27758;55.900;8.516;2023-04-06T03:38:11;0.20;99.90
42099;DHT22;27758;55.900;8.516;2023-04-06T03:40:37;0.20;99.90
42099;DHT22;27758;55.900;8.516;2023-04-06T03:43:04;0.10;99.90
42099;DHT22;27758;55.900;8.516;2023-04-06T03:45:29;0.10;99.90
42099;DHT22;27758;55.900;8.516;2023-04-06T03:47:55;0.20;99.90
42099;DHT22;27758;55.900;8.516;2023-04-06T03:50:21;0.20;99.90
42099;DHT22;27758;55.900;8.516;2023-04-06T03:52:46;0.30;99.90
42099;DHT22;27758;55.900;8.516;2023-04-06T03:55:12;0.30;99.90
42099;DHT22;27758;55.900;8.516;2023-04-06T03:57:38;0.30;99.90
42099;DHT22;27758;55.900;8.516;2023-04-06T04:00:04;0.30;99.90
42099;DHT22;27758;55.900;8.516;2023-04-06T04:02:29;0.30;99.90
42099;DHT22;27758;55.900;8.516;2023-04-06T04:04:55;0.30;99.90
42099;DHT22;27758;55.900;8.516;2023-04-06T04:07:21;0.30;99.90
42099;DHT22;27758;55.900;8.516;2023-04-06T04:09:46;0.30;99.90
42099;DHT22;27758;55.900;8.516;2023-04-06T04:12:12;0.40;99.90
42099;DHT22;27758;55.900;8.516;2023-04-06T04:14:40;0.40;99.90
42099;DHT22;27758;55.900;8.516;2023-04-06T04:17:05;0.40;99.90
42099;DHT22;27758;55.900;8.516;2023-04-06T04:19:31;0.40;99.90
42099;DHT22;27758;55.900;8.516;2023-04-06T04:21:57;0.30;99.90
42099;DHT22;27758;55.900;8.516;2023-04-06T04:24:22;0.30;99.90
42099;DHT22;27758;55.900;8.516;2023-04-06T04:26:48;0.20;99.90
42099;DHT22;27758;55.900;8.516;2023-04-06T04:29:14;0.20;99.90
42099;DHT22;27758;55.900;8.516;2023-04-06T04:31:40;0.20;99.90
42099;DHT22;27758;55.900;8.516;2023-04-06T04:34:06;0.20;99.90
42099;DHT22;27758;55.900;8.516;2023-04-06T04:36:32;0.30;99.90
42099;DHT22;27758;55.900;8.516;2023-04-06T04:38:58;0.30;99.90
42099;DHT22;27758;55.900;8.516;2023-04-06T04:41:24;0.30;99.90
42099;DHT22;27758;55.900;8.516;2023-04-06T04:43:49;0.30;99.90
42099;DHT22;27758;55.900;8.516;2023-04-06T04:46:15;0.40;99.90
42099;DHT22;27758;55.900;8.516;2023-04-06T04:48:41;0.40;99.90
42099;DHT22;27758;55.900;8.516;2023-04-06T04:51:06;0.50;99.90
42099;DHT22;27758;55.900;8.516;2023-04-06T04:53:32;0.50;99.90
42099;DHT22;27758;55.900;8.516;2023-04-06T04:55:58;0.50;99.90
42099;DHT22;27758;55.900;8.516;2023-04-06T04:58:23;0.50;99.90
42099;DHT22;27758;55.900;8.516;2023-04-06T05:00:49;0.50;99.90
42099;DHT22;27758;55.900;8.516;2023-04-06T05:03:20;0.60;99.90
42099;DHT22;27758;55.900;8.516;2023-04-06T05:05:47;0.70;99.90
42099;DHT22;27758;55.900;8.516;2023-04-06T05:08:13;0.70;99.90
42099;DHT22;27758;55.900;8.516;2023-04-06T05:10:39;0.70;99.90
42099;DHT22;27758;55.900;8.516;2023-04-06T05:13:05;0.70;99.90
42099;DHT22;27758;55.900;8.516;2023-04-06T05:15:31;0.70;99.90
42099;DHT22;27758;55.900;8.516;2023-04-06T05:17:56;0.80;99.90
42099;DHT22;27758;55.900;8.516;2023-04-06T05:20:22;0.80;99.90
42099;DHT22;27758;55.900;8.516;2023-04-06T05:22:48;0.90;99.90
42099;DHT22;27758;55.900;8.516;2023-04-06T05:25:14;1.00;99.90
42099;DHT22;27758;55.900;8.516;2023-04-06T05:27:41;1.00;99.90
42099;DHT22;27758;55.900;8.516;2023-04-06T05:30:07;1.00;99.90
42099;DHT22;27758;55.900;8.516;2023-04-06T05:32:33;1.10;99.90
42099;DHT22;27758;55.900;8.516;2023-04-06T05:34:59;1.10;99.90
42099;DHT22;27758;55.900;8.516;2023-04-06T05:37:25;1.20;99.90
42099;DHT22;27758;55.900;8.516;2023-04-06T05:39:51;1.30;99.90
42099;DHT22;27758;55.900;8.516;2023-04-06T05:42:16;1.30;99.90
42099;DHT22;27758;55.900;8.516;2023-04-06T05:44:42;1.30;99.90
42099;DHT22;27758;55.900;8.516;2023-04-06T05:47:08;1.30;99.90
42099;DHT22;27758;55.900;8.516;2023-04-06T05:49:34;1.30;99.90
42099;DHT22;27758;55.900;8.516;2023-04-06T05:52:00;1.40;99.90
42099;DHT22;27758;55.900;8.516;2023-04-06T05:54:26;1.40;99.90
42099;DHT22;27758;55.900;8.516;2023-04-06T05:56:52;1.50;99.90
42099;DHT22;27758;55.900;8.516;2023-04-06T05:59:18;1.50;99.90
42099;DHT22;27758;55.900;8.516;2023-04-06T06:01:44;1.60;99.90
42099;DHT22;27758;55.900;8.516;2023-04-06T06:04:09;1.60;99.90
42099;DHT22;27758;55.900;8.516;2023-04-06T06:06:35;1.60;99.90
42099;DHT22;27758;55.900;8.516;2023-04-06T06:09:02;1.70;99.90
42099;DHT22;27758;55.900;8.516;2023-04-06T06:11:29;1.70;99.90
42099;DHT22;27758;55.900;8.516;2023-04-06T06:13:55;1.70;99.90
42099;DHT22;27758;55.900;8.516;2023-04-06T06:16:21;1.80;99.90
42099;DHT22;27758;55.900;8.516;2023-04-06T06:18:47;1.90;99.90
42099;DHT22;27758;55.900;8.516;2023-04-06T06:21:13;2.00;99.90
42099;DHT22;27758;55.900;8.516;2023-04-06T06:23:41;2.20;99.90
42099;DHT22;27758;55.900;8.516;2023-04-06T06:26:07;2.30;99.90
42099;DHT22;27758;55.900;8.516;2023-04-06T06:28:33;2.50;99.90
42099;DHT22;27758;55.900;8.516;2023-04-06T06:30:58;2.60;99.90
42099;DHT22;27758;55.900;8.516;2023-04-06T06:33:24;2.60;99.90
42099;DHT22;27758;55.900;8.516;2023-04-06T06:35:51;2.70;99.90
42099;DHT22;27758;55.900;8.516;2023-04-06T06:38:18;2.90;99.90
42099;DHT22;27758;55.900;8.516;2023-04-06T06:40:45;3.10;99.90
42099;DHT22;27758;55.900;8.516;2023-04-06T06:43:11;3.20;99.90
42099;DHT22;27758;55.900;8.516;2023-04-06T06:45:36;3.30;99.90
42099;DHT22;27758;55.900;8.516;2023-04-06T06:48:02;3.30;99.90
42099;DHT22;27758;55.900;8.516;2023-04-06T06:50:28;3.50;99.90
42099;DHT22;27758;55.900;8.516;2023-04-06T06:52:54;3.50;99.90
42099;DHT22;27758;55.900;8.516;2023-04-06T06:55:20;3.70;99.90
42099;DHT22;27758;55.900;8.516;2023-04-06T06:57:45;3.80;99.90
42099;DHT22;27758;55.900;8.516;2023-04-06T07:00:14;3.80;99.90
42099;DHT22;27758;55.900;8.516;2023-04-06T07:02:40;4.00;99.90
42099;DHT22;27758;55.900;8.516;2023-04-06T07:05:06;4.20;99.90
42099;DHT22;27758;55.900;8.516;2023-04-06T07:07:32;4.30;99.90
42099;DHT22;27758;55.900;8.516;2023-04-06T07:09:59;4.50;99.90
42099;DHT22;27758;55.900;8.516;2023-04-06T07:12:25;4.50;99.90
42099;DHT22;27758;55.900;8.516;2023-04-06T07:14:51;4.70;99.90
42099;DHT22;27758;55.900;8.516;2023-04-06T07:17:17;4.90;99.90
42099;DHT22;27758;55.900;8.516;2023-04-06T07:19:43;5.10;99.90
42099;DHT22;27758;55.900;8.516;2023-04-06T07:22:08;5.30;99.90
42099;DHT22;27758;55.900;8.516;2023-04-06T07:24:34;5.50;99.90
42099;DHT22;27758;55.900;8.516;2023-04-06T07:27:00;5.60;99.90
42099;DHT22;27758;55.900;8.516;2023-04-06T07:29:26;5.60;99.90
42099;DHT22;27758;55.900;8.516;2023-04-06T07:31:53;5.80;99.90
42099;DHT22;27758;55.900;8.516;2023-04-06T07:34:18;6.10;99.90
42099;DHT22;27758;55.900;8.516;2023-04-06T07:36:44;6.40;99.90
42099;DHT22;27758;55.900;8.516;2023-04-06T07:39:10;6.80;99.90
42099;DHT22;27758;55.900;8.516;2023-04-06T07:41:36;7.00;99.90
42099;DHT22;27758;55.900;8.516;2023-04-06T07:44:02;7.20;99.90
42099;DHT22;27758;55.900;8.516;2023-04-06T07:46:28;7.30;99.90
42099;DHT22;27758;55.900;8.516;2023-04-06T07:48:56;7.50;99.90
42099;DHT22;27758;55.900;8.516;2023-04-06T07:51:21;7.70;99.90
42099;DHT22;27758;55.900;8.516;2023-04-06T07:53:47;7.80;99.90
42099;DHT22;27758;55.900;8.516;2023-04-06T07:56:13;7.80;99.90
42099;DHT22;27758;55.900;8.516;2023-04-06T07:58:40;7.80;99.90
42099;DHT22;27758;55.900;8.516;2023-04-06T08:01:06;7.90;99.90
42099;DHT22;27758;55.900;8.516;2023-04-06T08:03:34;7.90;99.90
42099;DHT22;27758;55.900;8.516;2023-04-06T08:06:00;8.10;99.90
42099;DHT22;27758;55.900;8.516;2023-04-06T08:08:26;8.30;99.90
42099;DHT22;27758;55.900;8.516;2023-04-06T08:10:52;8.30;99.90
42099;DHT22;27758;55.900;8.516;2023-04-06T08:13:17;8.60;99.90
42099;DHT22;27758;55.900;8.516;2023-04-06T08:15:43;8.80;99.90
42099;DHT22;27758;55.900;8.516;2023-04-06T08:18:09;8.90;99.90
42099;DHT22;27758;55.900;8.516;2023-04-06T08:20:35;8.90;99.90
42099;DHT22;27758;55.900;8.516;2023-04-06T08:23:01;8.90;99.90
42099;DHT22;27758;55.900;8.516;2023-04-06T08:25:26;9.10;99.90
42099;DHT22;27758;55.900;8.516;2023-04-06T08:27:52;9.30;99.90
42099;DHT22;27758;55.900;8.516;2023-04-06T08:30:18;9.50;99.90
42099;DHT22;27758;55.900;8.516;2023-04-06T08:32:46;9.50;99.90
42099;DHT22;27758;55.900;8.516;2023-04-06T08:35:14;9.40;99.90
42099;DHT22;27758;55.900;8.516;2023-04-06T08:37:40;9.50;99.90
42099;DHT22;27758;55.900;8.516;2023-04-06T08:40:06;9.80;99.90
42099;DHT22;27758;55.900;8.516;2023-04-06T08:42:33;9.80;99.90
42099;DHT22;27758;55.900;8.516;2023-04-06T08:45:01;9.70;99.90
42099;DHT22;27758;55.900;8.516;2023-04-06T08:47:28;9.70;99.90
42099;DHT22;27758;55.900;8.516;2023-04-06T08:49:53;9.80;99.90
42099;DHT22;27758;55.900;8.516;2023-04-06T08:52:19;9.80;99.90
42099;DHT22;27758;55.900;8.516;2023-04-06T08:54:46;9.80;99.90
42099;DHT22;27758;55.900;8.516;2023-04-06T08:57:12;10.10;99.90
42099;DHT22;27758;55.900;8.516;2023-04-06T08:59:39;10.20;99.90
42099;DHT22;27758;55.900;8.516;2023-04-06T09:02:04;10.20;99.90
42099;DHT22;27758;55.900;8.516;2023-04-06T09:04:35;10.20;99.90
42099;DHT22;27758;55.900;8.516;2023-04-06T09:07:02;10.10;99.90
42099;DHT22;27758;55.900;8.516;2023-04-06T09:09:27;10.10;99.90
42099;DHT22;27758;55.900;8.516;2023-04-06T09:11:53;10.40;99.90
42099;DHT22;27758;55.900;8.516;2023-04-06T09:14:35;10.40;99.90
42099;DHT22;27758;55.900;8.516;2023-04-06T09:17:02;10.30;99.90
42099;DHT22;27758;55.900;8.516;2023-04-06T09:19:27;10.50;99.90
42099;DHT22;27758;55.900;8.516;2023-04-06T09:22:13;10.50;99.90
42099;DHT22;27758;55.900;8.516;2023-04-06T09:24:41;10.20;99.90
42099;DHT22;27758;55.900;8.516;2023-04-06T09:27:08;10.20;99.90
42099;DHT22;27758;55.900;8.516;2023-04-06T09:29:33;9.90;99.90
42099;DHT22;27758;55.900;8.516;2023-04-06T09:32:06;9.60;99.90
42099;DHT22;27758;55.900;8.516;2023-04-06T09:34:33;9.70;99.90
42099;DHT22;27758;55.900;8.516;2023-04-06T09:36:59;10.10;99.90
42099;DHT22;27758;55.900;8.516;2023-04-06T09:39:28;10.70;99.90
42099;DHT22;27758;55.900;8.516;2023-04-06T09:41:54;11.00;99.90
42099;DHT22;27758;55.900;8.516;2023-04-06T09:44:21;11.30;99.00
42099;DHT22;27758;55.900;8.516;2023-04-06T09:46:47;11.50;99.80
42099;DHT22;27758;55.900;8.516;2023-04-06T09:49:13;11.60;99.90
42099;DHT22;27758;55.900;8.516;2023-04-06T09:51:40;11.80;99.70
42099;DHT22;27758;55.900;8.516;2023-04-06T09:54:06;11.70;98.30
42099;DHT22;27758;55.900;8.516;2023-04-06T10:02:05;10.60;99.90
42099;DHT22;27758;55.900;8.516;2023-04-06T10:04:49;10.70;99.90
42099;DHT22;27758;55.900;8.516;2023-04-06T10:07:19;10.70;99.90
42099;DHT22;27758;55.900;8.516;2023-04-06T10:09:46;10.40;99.90
42099;DHT22;27758;55.900;8.516;2023-04-06T10:12:12;10.10;99.90
42099;DHT22;27758;55.900;8.516;2023-04-06T10:14:39;10.10;99.90
42099;DHT22;27758;55.900;8.516;2023-04-06T10:17:06;9.90;99.90
42099;DHT22;27758;55.900;8.516;2023-04-06T10:19:39;10.50;99.90
42099;DHT22;27758;55.900;8.516;2023-04-06T10:22:08;10.80;99.90
42099;DHT22;27758;55.900;8.516;2023-04-06T10:24:35;10.50;99.90
42099;DHT22;27758;55.900;8.516;2023-04-06T10:27:02;10.50;99.90
42099;DHT22;27758;55.900;8.516;2023-04-06T10:29:28;10.40;99.90
42099;DHT22;27758;55.900;8.516;2023-04-06T10:32:05;10.60;99.90
42099;DHT22;27758;55.900;8.516;2023-04-06T10:34:35;10.90;99.90
42099;DHT22;27758;55.900;8.516;2023-04-06T10:37:13;11.10;99.90
42099;DHT22;27758;55.900;8.516;2023-04-06T10:39:52;10.70;99.50
42099;DHT22;27758;55.900;8.516;2023-04-06T10:42:36;10.40;99.90
42099;DHT22;27758;55.900;8.516;2023-04-06T10:45:06;10.10;99.90
42099;DHT22;27758;55.900;8.516;2023-04-06T10:47:41;10.60;99.90
42099;DHT22;27758;55.900;8.516;2023-04-06T10:50:07;10.70;99.90
42099;DHT22;27758;55.900;8.516;2023-04-06T10:52:33;10.40;99.10
42099;DHT22;27758;55.900;8.516;2023-04-06T10:54:59;10.20;99.90
42099;DHT22;27758;55.900;8.516;2023-04-06T10:57:28;10.10;99.90
42099;DHT22;27758;55.900;8.516;2023-04-06T10:59:54;10.00;99.90
42099;DHT22;27758;55.900;8.516;2023-04-06T11:02:20;10.00;99.90
42099;DHT22;27758;55.900;8.516;2023-04-06T11:04:56;10.00;99.90
42099;DHT22;27758;55.900;8.516;2023-04-06T11:07:26;9.90;99.90
42099;DHT22;27758;55.900;8.516;2023-04-06T11:09:52;10.10;99.80
42099;DHT22;27758;55.900;8.516;2023-04-06T11:12:26;10.60;99.90
42099;DHT22;27758;55.900;8.516;2023-04-06T11:14:54;10.70;99.90
42099;DHT22;27758;55.900;8.516;2023-04-06T11:17:28;10.40;99.80
42099;DHT22;27758;55.900;8.516;2023-04-06T11:19:55;10.30;99.90
42099;DHT22;27758;55.900;8.516;2023-04-06T11:22:21;10.20;99.30
42099;DHT22;27758;55.900;8.516;2023-04-06T11:24:46;10.40;99.60
42099;DHT22;27758;55.900;8.516;2023-04-06T11:27:14;10.40;99.20
42099;DHT22;27758;55.900;8.516;2023-04-06T11:29:43;10.80;99.90
42099;DHT22;27758;55.900;8.516;2023-04-06T11:32:11;10.90;99.50
42099;DHT22;27758;55.900;8.516;2023-04-06T11:34:47;10.90;99.20
42099;DHT22;27758;55.900;8.516;2023-04-06T11:37:13;11.20;98.80
42099;DHT22;27758;55.900;8.516;2023-04-06T11:39:47;11.50;98.60
42099;DHT22;27758;55.900;8.516;2023-04-06T11:42:21;11.50;97.90
42099;DHT22;27758;55.900;8.516;2023-04-06T11:44:50;11.60;97.60
42099;DHT22;27758;55.900;8.516;2023-04-06T11:47:18;11.30;97.90
42099;DHT22;27758;55.900;8.516;2023-04-06T11:49:45;10.90;97.90
42099;DHT22;27758;55.900;8.516;2023-04-06T11:52:24;10.60;98.40
42099;DHT22;27758;55.900;8.516;2023-04-06T11:54:52;10.50;98.40
42099;DHT22;27758;55.900;8.516;2023-04-06T11:57:19;10.60;98.70
42099;DHT22;27758;55.900;8.516;2023-04-06T11:59:45;10.60;99.10
42099;DHT22;27758;55.900;8.516;2023-04-06T12:02:11;11.10;98.40
42099;DHT22;27758;55.900;8.516;2023-04-06T12:04:37;11.60;97.80
42099;DHT22;27758;55.900;8.516;2023-04-06T12:07:04;11.70;97.50
42099;DHT22;27758;55.900;8.516;2023-04-06T12:09:31;11.30;97.00
42099;DHT22;27758;55.900;8.516;2023-04-06T12:11:57;11.10;97.60
42099;DHT22;27758;55.900;8.516;2023-04-06T12:14:23;11.20;98.50
42099;DHT22;27758;55.900;8.516;2023-04-06T12:16:49;11.10;98.00
42099;DHT22;27758;55.900;8.516;2023-04-06T12:19:14;11.30;97.60
42099;DHT22;27758;55.900;8.516;2023-04-06T12:21:40;12.00;97.10
42099;DHT22;27758;55.900;8.516;2023-04-06T12:24:07;12.30;96.10
42099;DHT22;27758;55.900;8.516;2023-04-06T12:26:33;12.20;97.20
42099;DHT22;27758;55.900;8.516;2023-04-06T12:29:00;11.90;95.90
42099;DHT22;27758;55.900;8.516;2023-04-06T12:31:33;11.80;96.00
42099;DHT22;27758;55.900;8.516;2023-04-06T12:34:00;12.00;97.80
42099;DHT22;27758;55.900;8.516;2023-04-06T12:36:27;12.30;96.00
42099;DHT22;27758;55.900;8.516;2023-04-06T12:38:53;12.30;95.20
42099;DHT22;27758;55.900;8.516;2023-04-06T12:41:19;12.30;96.10
42099;DHT22;27758;55.900;8.516;2023-04-06T12:43:45;12.60;95.70
42099;DHT22;27758;55.900;8.516;2023-04-06T12:46:11;13.10;95.50
42099;DHT22;27758;55.900;8.516;2023-04-06T12:48:38;13.20;94.60
42099;DHT22;27758;55.900;8.516;2023-04-06T12:51:05;13.30;94.10
42099;DHT22;27758;55.900;8.516;2023-04-06T12:53:31;13.40;94.00
42099;DHT22;27758;55.900;8.516;2023-04-06T12:55:58;13.20;94.10
42099;DHT22;27758;55.900;8.516;2023-04-06T12:58:24;13.40;94.00
42099;DHT22;27758;55.900;8.516;2023-04-06T13:00:54;13.10;93.20
42099;DHT22;27758;55.900;8.516;2023-04-06T13:03:21;12.40;93.60
42099;DHT22;27758;55.900;8.516;2023-04-06T13:05:52;12.20;93.90
42099;DHT22;27758;55.900;8.516;2023-04-06T13:08:19;12.10;94.60
42099;DHT22;27758;55.900;8.516;2023-04-06T13:10:49;11.80;94.60
42099;DHT22;27758;55.900;8.516;2023-04-06T13:13:16;11.50;94.60
42099;DHT22;27758;55.900;8.516;2023-04-06T13:15:42;11.40;93.90
42099;DHT22;27758;55.900;8.516;2023-04-06T13:18:08;11.30;93.70
42099;DHT22;27758;55.900;8.516;2023-04-06T13:20:35;11.60;94.30
42099;DHT22;27758;55.900;8.516;2023-04-06T13:23:01;11.40;94.30
42099;DHT22;27758;55.900;8.516;2023-04-06T13:25:26;11.10;94.50
42099;DHT22;27758;55.900;8.516;2023-04-06T13:27:54;11.10;94.70
42099;DHT22;27758;55.900;8.516;2023-04-06T13:30:20;11.60;94.50
42099;DHT22;27758;55.900;8.516;2023-04-06T13:32:46;12.10;94.00
42099;DHT22;27758;55.900;8.516;2023-04-06T13:35:12;12.30;94.10
42099;DHT22;27758;55.900;8.516;2023-04-06T13:37:38;12.10;94.10
42099;DHT22;27758;55.900;8.516;2023-04-06T13:40:04;11.70;94.40
42099;DHT22;27758;55.900;8.516;2023-04-06T13:42:31;11.60;94.90
42099;DHT22;27758;55.900;8.516;2023-04-06T13:44:57;12.00;94.80
42099;DHT22;27758;55.900;8.516;2023-04-06T13:47:22;12.00;94.30
42099;DHT22;27758;55.900;8.516;2023-04-06T13:49:50;11.80;94.70
42099;DHT22;27758;55.900;8.516;2023-04-06T13:52:17;11.60;95.20
42099;DHT22;27758;55.900;8.516;2023-04-06T13:54:42;11.50;95.00
42099;DHT22;27758;55.900;8.516;2023-04-06T13:57:08;11.30;95.00
42099;DHT22;27758;55.900;8.516;2023-04-06T13:59:35;11.30;95.60
42099;DHT22;27758;55.900;8.516;2023-04-06T14:02:03;11.40;95.30
42099;DHT22;27758;55.900;8.516;2023-04-06T14:04:30;11.60;95.70
42099;DHT22;27758;55.900;8.516;2023-04-06T14:06:57;11.70;95.40
42099;DHT22;27758;55.900;8.516;2023-04-06T14:09:23;11.80;95.10
42099;DHT22;27758;55.900;8.516;2023-04-06T14:11:50;12.10;95.40
42099;DHT22;27758;55.900;8.516;2023-04-06T14:14:16;12.50;95.20
42099;DHT22;27758;55.900;8.516;2023-04-06T14:16:42;12.80;94.40
42099;DHT22;27758;55.900;8.516;2023-04-06T14:19:10;12.30;95.10
42099;DHT22;27758;55.900;8.516;2023-04-06T14:21:40;12.10;95.10
42099;DHT22;27758;55.900;8.516;2023-04-06T14:24:07;12.40;95.20
42099;DHT22;27758;55.900;8.516;2023-04-06T14:26:33;12.50;94.70
42099;DHT22;27758;55.900;8.516;2023-04-06T14:29:00;12.40;95.10
42099;DHT22;27758;55.900;8.516;2023-04-06T14:31:25;12.40;95.40
42099;DHT22;27758;55.900;8.516;2023-04-06T14:33:52;12.40;94.20
42099;DHT22;27758;55.900;8.516;2023-04-06T14:36:18;12.00;95.20
42099;DHT22;27758;55.900;8.516;2023-04-06T14:38:44;11.60;95.50
42099;DHT22;27758;55.900;8.516;2023-04-06T14:41:20;11.30;95.90
42099;DHT22;27758;55.900;8.516;2023-04-06T14:43:47;11.60;96.30
42099;DHT22;27758;55.900;8.516;2023-04-06T14:46:13;11.80;95.60
42099;DHT22;27758;55.900;8.516;2023-04-06T14:48:38;11.90;95.20
42099;DHT22;27758;55.900;8.516;2023-04-06T14:51:07;12.10;95.70
42099;DHT22;27758;55.900;8.516;2023-04-06T14:53:33;12.00;95.40
42099;DHT22;27758;55.900;8.516;2023-04-06T14:55:59;11.90;95.20
42099;DHT22;27758;55.900;8.516;2023-04-06T14:58:25;11.50;95.50
42099;DHT22;27758;55.900;8.516;2023-04-06T15:00:58;11.50;95.90
42099;DHT22;27758;55.900;8.516;2023-04-06T15:03:25;11.60;95.60
42099;DHT22;27758;55.900;8.516;2023-04-06T15:05:52;11.80;96.00
42099;DHT22;27758;55.900;8.516;2023-04-06T15:08:18;11.90;96.20
42099;DHT22;27758;55.900;8.516;2023-04-06T15:10:50;11.60;95.30
42099;DHT22;27758;55.900;8.516;2023-04-06T15:13:16;11.30;95.90
42099;DHT22;27758;55.900;8.516;2023-04-06T15:15:42;11.30;96.00
42099;DHT22;27758;55.900;8.516;2023-04-06T15:18:08;11.40;96.30
42099;DHT22;27758;55.900;8.516;2023-04-06T15:20:34;11.40;96.50
42099;DHT22;27758;55.900;8.516;2023-04-06T15:23:02;11.70;96.50
42099;DHT22;27758;55.900;8.516;2023-04-06T15:25:29;11.80;96.00
42099;DHT22;27758;55.900;8.516;2023-04-06T15:27:55;11.80;96.70
42099;DHT22;27758;55.900;8.516;2023-04-06T15:30:20;11.60;96.60
42099;DHT22;27758;55.900;8.516;2023-04-06T15:32:55;11.50;96.60
42099;DHT22;27758;55.900;8.516;2023-04-06T15:35:21;11.50;96.70
42099;DHT22;27758;55.900;8.516;2023-04-06T15:37:47;11.60;96.40
42099;DHT22;27758;55.900;8.516;2023-04-06T15:40:13;11.20;96.10
42099;DHT22;27758;55.900;8.516;2023-04-06T15:42:41;11.20;96.70